sensor_id;sensor_type;location;lat;lon;timestamp;temperature;humidity
68217;DHT22;55037;52.354;4.992;2023-07-24T00:01:56;20.30;75.60
68217;DHT22;55037;52.354;4.992;2023-07-24T00:04:23;20.20;75.30
68217;DHT22;55037;52.354;4.992;2023-07-24T00:06:51;20.30;75.50
68217;DHT22;55037;52.354;4.992;2023-07-24T00:09:18;20.30;75.80
68217;DHT22;55037;52.354;4.992;2023-07-24T00:11:45;20.30;75.80
68217;DHT22;55037;52.354;4.992;2023-07-24T00:14:12;20.30;76.00
68217;DHT22;55037;52.354;4.992;2023-07-24T00:16:40;20.30;76.00
68217;DHT22;55037;52.354;4.992;2023-07-24T00:19:07;20.40;76.00
68217;DHT22;55037;52.354;4.992;2023-07-24T00:21:35;20.40;76.00
68217;DHT22;55037;52.354;4.992;2023-07-24T00:24:02;20.40;76.10
68217;DHT22;55037;52.354;4.992;2023-07-24T00:26:29;20.40;76.20
68217;DHT22;55037;52.354;4.992;2023-07-24T00:28:59;20.40;76.30
68217;DHT22;55037;52.354;4.992;2023-07-24T00:31:27;20.30;76.20
68217;DHT22;55037;52.354;4.992;2023-07-24T00:33:55;20.20;76.50
68217;DHT22;55037;52.354;4.992;2023-07-24T00:36:22;20.20;76.40
68217;DHT22;55037;52.354;4.992;2023-07-24T00:38:49;20.20;76.60
68217;DHT22;55037;52.354;4.992;2023-07-24T00:41:16;20.10;76.60
68217;DHT22;55037;52.354;4.992;2023-07-24T00:43:44;20.10;76.70
68217;DHT22;55037;52.354;4.992;2023-07-24T00:46:11;20.10;76.80
68217;DHT22;55037;52.354;4.992;2023-07-24T00:48:39;20.10;76.80
68217;DHT22;55037;52.354;4.992;2023-07-24T00:51:07;20.20;77.80
68217;DHT22;55037;52.354;4.992;2023-07-24T00:53:35;20.20;76.70
68217;DHT22;55037;52.354;4.992;2023-07-24T00:56:02;20.20;76.50
68217;DHT22;55037;52.354;4.992;2023-07-24T00:58:30;20.20;76.70
68217;DHT22;55037;52.354;4.992;2023-07-24T01:00:58;20.20;76.60
68217;DHT22;55037;52.354;4.992;2023-07-24T01:03:34;20.20;76.50
68217;DHT22;55037;52.354;4.992;2023-07-24T01:06:03;20.20;76.60
68217;DHT22;55037;52.354;4.992;2023-07-24T01:08:31;20.20;76.60
68217;DHT22;55037;52.354;4.992;2023-07-24T01:11:10;20.10;76.60
68217;DHT22;55037;52.354;4.992;2023-07-24T01:13:44;20.10;76.70
68217;DHT22;55037;52.354;4.992;2023-07-24T01:16:18;20.10;77.10
68217;DHT22;55037;52.354;4.992;2023-07-24T01:18:47;20.10;77.00
68217;DHT22;55037;52.354;4.992;2023-07-24T01:21:20;20.10;77.00
68217;DHT22;55037;52.354;4.992;2023-07-24T01:24:24;20.10;76.90
68217;DHT22;55037;52.354;4.992;2023-07-24T01:26:55;20.10;76.80
68217;DHT22;55037;52.354;4.992;2023-07-24T01:29:22;20.30;77.00
68217;DHT22;55037;52.354;4.992;2023-07-24T01:31:50;20.10;77.00
68217;DHT22;55037;52.354;4.992;2023-07-24T01:34:17;20.10;77.20
68217;DHT22;55037;52.354;4.992;2023-07-24T01:36:46;20.10;77.50
68217;DHT22;55037;52.354;4.992;2023-07-24T01:39:14;20.10;77.20
68217;DHT22;55037;52.354;4.992;2023-07-24T01:41:42;20.10;77.10
68217;DHT22;55037;52.354;4.992;2023-07-24T01:44:10;20.00;77.10
68217;DHT22;55037;52.354;4.992;2023-07-24T01:46:37;20.00;77.10
68217;DHT22;55037;52.354;4.992;2023-07-24T01:49:05;19.90;77.20
68217;DHT22;55037;52.354;4.992;2023-07-24T01:51:32;19.90;77.30
68217;DHT22;55037;52.354;4.992;2023-07-24T01:53:59;19.90;77.50
68217;DHT22;55037;52.354;4.992;2023-07-24T01:56:27;19.90;77.50
68217;DHT22;55037;52.354;4.992;2023-07-24T01:58:55;19.90;77.50
68217;DHT22;55037;52.354;4.992;2023-07-24T02:01:22;19.90;77.60
68217;DHT22;55037;52.354;4.992;2023-07-24T02:03:49;19.90;77.60
68217;DHT22;55037;52.354;4.992;2023-07-24T02:06:17;19.90;77.60
68217;DHT22;55037;52.354;4.992;2023-07-24T02:08:44;19.90;78.60
68217;DHT22;55037;52.354;4.992;2023-07-24T02:11:15;19.90;77.60
68217;DHT22;55037;52.354;4.992;2023-07-24T02:13:44;19.90;77.60
68217;DHT22;55037;52.354;4.992;2023-07-24T02:16:12;19.90;77.80
68217;DHT22;55037;52.354;4.992;2023-07-24T02:18:43;19.90;77.80
68217;DHT22;55037;52.354;4.992;2023-07-24T02:21:10;19.90;78.00
68217;DHT22;55037;52.354;4.992;2023-07-24T02:23:38;19.90;78.00
68217;DHT22;55037;52.354;4.992;2023-07-24T02:26:05;19.90;77.90
68217;DHT22;55037;52.354;4.992;2023-07-24T02:28:34;19.90;78.00
68217;DHT22;55037;52.354;4.992;2023-07-24T02:31:01;19.90;78.00
68217;DHT22;55037;52.354;4.992;2023-07-24T02:33:28;19.90;78.00
68217;DHT22;55037;52.354;4.992;2023-07-24T02:35:56;19.90;77.80
68217;DHT22;55037;52.354;4.992;2023-07-24T02:38:23;20.00;77.80
68217;DHT22;55037;52.354;4.992;2023-07-24T02:40:50;19.90;77.80
68217;DHT22;55037;52.354;4.992;2023-07-24T02:43:17;19.90;77.90
68217;DHT22;55037;52.354;4.992;2023-07-24T02:45:45;19.90;78.00
68217;DHT22;55037;52.354;4.992;2023-07-24T02:48:12;19.90;78.10
68217;DHT22;55037;52.354;4.992;2023-07-24T02:50:39;19.90;78.10
68217;DHT22;55037;52.354;4.992;2023-07-24T02:53:07;19.90;78.00
68217;DHT22;55037;52.354;4.992;2023-07-24T02:55:34;19.90;78.00
68217;DHT22;55037;52.354;4.992;2023-07-24T02:58:02;19.90;78.00
68217;DHT22;55037;52.354;4.992;2023-07-24T03:00:29;19.90;77.80
68217;DHT22;55037;52.354;4.992;2023-07-24T03:02:56;19.90;78.10
68217;DHT22;55037;52.354;4.992;2023-07-24T03:05:24;19.90;77.60
68217;DHT22;55037;52.354;4.992;2023-07-24T03:07:51;19.90;77.60
68217;DHT22;55037;52.354;4.992;2023-07-24T03:10:19;19.90;77.50
68217;DHT22;55037;52.354;4.992;2023-07-24T03:12:47;20.00;77.30
68217;DHT22;55037;52.354;4.992;2023-07-24T03:15:14;20.00;77.20
68217;DHT22;55037;52.354;4.992;2023-07-24T03:17:41;20.10;77.30
68217;DHT22;55037;52.354;4.992;2023-07-24T03:20:15;19.90;77.20
68217;DHT22;55037;52.354;4.992;2023-07-24T03:22:43;19.90;77.30
68217;DHT22;55037;52.354;4.992;2023-07-24T03:25:10;19.90;77.30
68217;DHT22;55037;52.354;4.992;2023-07-24T03:27:38;19.90;77.40
68217;DHT22;55037;52.354;4.992;2023-07-24T03:30:06;19.90;77.40
68217;DHT22;55037;52.354;4.992;2023-07-24T03:32:33;19.90;77.40
68217;DHT22;55037;52.354;4.992;2023-07-24T03:35:01;19.80;77.40
68217;DHT22;55037;52.354;4.992;2023-07-24T03:37:28;19.80;77.30
68217;DHT22;55037;52.354;4.992;2023-07-24T03:39:55;19.80;77.30
68217;DHT22;55037;52.354;4.992;2023-07-24T03:42:32;19.80;77.30
68217;DHT22;55037;52.354;4.992;2023-07-24T03:44:59;19.80;77.20
68217;DHT22;55037;52.354;4.992;2023-07-24T03:47:27;19.80;77.10
68217;DHT22;55037;52.354;4.992;2023-07-24T03:49:54;19.90;77.00
68217;DHT22;55037;52.354;4.992;2023-07-24T03:52:22;19.90;77.00
68217;DHT22;55037;52.354;4.992;2023-07-24T03:54:50;19.90;77.10
68217;DHT22;55037;52.354;4.992;2023-07-24T03:57:18;19.90;77.00
68217;DHT22;55037;52.354;4.992;2023-07-24T03:59:45;19.90;76.80
68217;DHT22;55037;52.354;4.992;2023-07-24T04:02:15;19.90;76.70
68217;DHT22;55037;52.354;4.992;2023-07-24T04:04:42;19.90;76.60
68217;DHT22;55037;52.354;4.992;2023-07-24T04:07:10;19.90;76.50
68217;DHT22;55037;52.354;4.992;2023-07-24T04:09:37;19.90;76.50
68217;DHT22;55037;52.354;4.992;2023-07-24T04:12:05;19.90;76.40
68217;DHT22;55037;52.354;4.992;2023-07-24T04:14:32;19.90;76.40
68217;DHT22;55037;52.354;4.992;2023-07-24T04:17:00;19.90;76.40
68217;DHT22;55037;52.354;4.992;2023-07-24T04:19:27;19.80;76.40
68217;DHT22;55037;52.354;4.992;2023-07-24T04:21:54;19.80;76.50
68217;DHT22;55037;52.354;4.992;2023-07-24T04:24:22;19.80;76.60
68217;DHT22;55037;52.354;4.992;2023-07-24T04:26:49;19.70;76.50
68217;DHT22;55037;52.354;4.992;2023-07-24T04:29:16;19.80;76.60
68217;DHT22;55037;52.354;4.992;2023-07-24T04:31:43;19.70;76.60
68217;DHT22;55037;52.354;4.992;2023-07-24T04:34:11;19.70;76.50
68217;DHT22;55037;52.354;4.992;2023-07-24T04:36:38;19.70;76.60
68217;DHT22;55037;52.354;4.992;2023-07-24T04:39:05;19.60;76.70
68217;DHT22;55037;52.354;4.992;2023-07-24T04:41:32;19.60;76.80
68217;DHT22;55037;52.354;4.992;2023-07-24T04:44:00;19.60;76.80
68217;DHT22;55037;52.354;4.992;2023-07-24T04:46:27;19.60;76.80
68217;DHT22;55037;52.354;4.992;2023-07-24T04:48:55;19.60;76.80
68217;DHT22;55037;52.354;4.992;2023-07-24T04:51:22;19.60;76.90
68217;DHT22;55037;52.354;4.992;2023-07-24T04:53:50;19.50;76.80
68217;DHT22;55037;52.354;4.992;2023-07-24T04:56:17;19.50;76.80
68217;DHT22;55037;52.354;4.992;2023-07-24T04:58:45;19.50;77.00
68217;DHT22;55037;52.354;4.992;2023-07-24T05:01:12;19.50;77.00
68217;DHT22;55037;52.354;4.992;2023-07-24T05:03:39;19.60;77.10
68217;DHT22;55037;52.354;4.992;2023-07-24T05:06:06;19.60;77.10
68217;DHT22;55037;52.354;4.992;2023-07-24T05:08:34;19.70;77.20
68217;DHT22;55037;52.354;4.992;2023-07-24T05:11:01;19.70;77.30
68217;DHT22;55037;52.354;4.992;2023-07-24T05:13:28;19.90;77.30
68217;DHT22;55037;52.354;4.992;2023-07-24T05:15:56;20.00;77.10
68217;DHT22;55037;52.354;4.992;2023-07-24T05:18:23;20.10;76.70
68217;DHT22;55037;52.354;4.992;2023-07-24T05:20:50;20.20;76.60
68217;DHT22;55037;52.354;4.992;2023-07-24T05:23:20;20.30;76.30
68217;DHT22;55037;52.354;4.992;2023-07-24T05:25:56;20.40;76.00
68217;DHT22;55037;52.354;4.992;2023-07-24T05:28:26;20.50;76.00
68217;DHT22;55037;52.354;4.992;2023-07-24T05:30:54;20.60;75.50
68217;DHT22;55037;52.354;4.992;2023-07-24T05:33:21;20.70;75.00
68217;DHT22;55037;52.354;4.992;2023-07-24T05:35:49;20.70;75.20
68217;DHT22;55037;52.354;4.992;2023-07-24T05:38:17;20.70;75.00
68217;DHT22;55037;52.354;4.992;2023-07-24T05:40:44;20.80;74.70
68217;DHT22;55037;52.354;4.992;2023-07-24T05:43:11;20.80;75.70
68217;DHT22;55037;52.354;4.992;2023-07-24T05:45:38;20.90;74.70
68217;DHT22;55037;52.354;4.992;2023-07-24T05:48:06;20.90;74.30
68217;DHT22;55037;52.354;4.992;2023-07-24T05:50:33;21.00;74.30
68217;DHT22;55037;52.354;4.992;2023-07-24T05:53:00;21.00;73.70
68217;DHT22;55037;52.354;4.992;2023-07-24T05:55:28;21.10;73.90
68217;DHT22;55037;52.354;4.992;2023-07-24T05:57:55;21.10;73.60
68217;DHT22;55037;52.354;4.992;2023-07-24T06:00:22;21.20;73.20
68217;DHT22;55037;52.354;4.992;2023-07-24T06:02:50;21.20;72.90
68217;DHT22;55037;52.354;4.992;2023-07-24T06:05:17;21.10;73.90
68217;DHT22;55037;52.354;4.992;2023-07-24T06:07:44;21.10;73.10
68217;DHT22;55037;52.354;4.992;2023-07-24T06:10:12;21.10;72.70
68217;DHT22;55037;52.354;4.992;2023-07-24T06:12:39;21.00;73.20
68217;DHT22;55037;52.354;4.992;2023-07-24T06:15:07;21.10;73.60
68217;DHT22;55037;52.354;4.992;2023-07-24T06:17:34;21.20;73.20
68217;DHT22;55037;52.354;4.992;2023-07-24T06:20:02;21.40;73.00
68217;DHT22;55037;52.354;4.992;2023-07-24T06:22:29;21.50;72.80
68217;DHT22;55037;52.354;4.992;2023-07-24T06:24:56;21.50;72.40
68217;DHT22;55037;52.354;4.992;2023-07-24T06:27:23;21.50;72.50
68217;DHT22;55037;52.354;4.992;2023-07-24T06:29:51;21.70;71.50
68217;DHT22;55037;52.354;4.992;2023-07-24T06:32:22;21.70;72.20
68217;DHT22;55037;52.354;4.992;2023-07-24T06:34:49;21.70;72.00
68217;DHT22;55037;52.354;4.992;2023-07-24T06:37:16;21.70;72.00
68217;DHT22;55037;52.354;4.992;2023-07-24T06:39:49;21.70;72.00
68217;DHT22;55037;52.354;4.992;2023-07-24T06:42:16;21.90;72.60
68217;DHT22;55037;52.354;4.992;2023-07-24T06:44:43;22.20;72.20
68217;DHT22;55037;52.354;4.992;2023-07-24T06:47:11;22.50;71.80
68217;DHT22;55037;52.354;4.992;2023-07-24T06:49:38;22.80;70.50
68217;DHT22;55037;52.354;4.992;2023-07-24T06:52:05;22.90;70.30
68217;DHT22;55037;52.354;4.992;2023-07-24T06:54:33;23.20;69.90
68217;DHT22;55037;52.354;4.992;2023-07-24T06:57:00;23.40;68.10
68217;DHT22;55037;52.354;4.992;2023-07-24T06:59:27;23.50;67.70
68217;DHT22;55037;52.354;4.992;2023-07-24T07:01:55;23.50;67.30
68217;DHT22;55037;52.354;4.992;2023-07-24T07:04:22;23.50;67.30
68217;DHT22;55037;52.354;4.992;2023-07-24T07:06:49;23.60;67.00
68217;DHT22;55037;52.354;4.992;2023-07-24T07:09:16;23.60;66.60
68217;DHT22;55037;52.354;4.992;2023-07-24T07:11:44;23.60;66.10
68217;DHT22;55037;52.354;4.992;2023-07-24T07:14:12;23.50;66.30
68217;DHT22;55037;52.354;4.992;2023-07-24T07:16:40;23.40;66.10
68217;DHT22;55037;52.354;4.992;2023-07-24T07:19:08;23.40;66.20
68217;DHT22;55037;52.354;4.992;2023-07-24T07:21:36;23.30;65.30
68217;DHT22;55037;52.354;4.992;2023-07-24T07:24:04;23.20;66.10
68217;DHT22;55037;52.354;4.992;2023-07-24T07:26:31;23.20;66.10
68217;DHT22;55037;52.354;4.992;2023-07-24T07:28:59;23.30;66.10
68217;DHT22;55037;52.354;4.992;2023-07-24T07:31:26;23.10;65.40
68217;DHT22;55037;52.354;4.992;2023-07-24T07:33:54;23.00;65.80
68217;DHT22;55037;52.354;4.992;2023-07-24T07:36:21;23.10;66.30
68217;DHT22;55037;52.354;4.992;2023-07-24T07:38:50;23.30;65.70
68217;DHT22;55037;52.354;4.992;2023-07-24T07:41:17;23.40;65.20
68217;DHT22;55037;52.354;4.992;2023-07-24T07:43:44;23.30;64.80
68217;DHT22;55037;52.354;4.992;2023-07-24T07:46:11;23.30;64.90
68217;DHT22;55037;52.354;4.992;2023-07-24T07:48:39;23.30;65.10
68217;DHT22;55037;52.354;4.992;2023-07-24T07:51:07;23.30;64.90
68217;DHT22;55037;52.354;4.992;2023-07-24T07:53:34;23.20;64.40
68217;DHT22;55037;52.354;4.992;2023-07-24T07:56:01;23.10;64.80
68217;DHT22;55037;52.354;4.992;2023-07-24T07:58:29;23.20;65.20
68217;DHT22;55037;52.354;4.992;2023-07-24T08:00:56;23.40;65.50
68217;DHT22;55037;52.354;4.992;2023-07-24T08:03:23;23.90;65.50
68217;DHT22;55037;52.354;4.992;2023-07-24T08:05:51;24.30;63.30
68217;DHT22;55037;52.354;4.992;2023-07-24T08:08:18;24.60;62.70
68217;DHT22;55037;52.354;4.992;2023-07-24T08:10:46;24.90;61.10
68217;DHT22;55037;52.354;4.992;2023-07-24T08:13:13;25.00;61.10
68217;DHT22;55037;52.354;4.992;2023-07-24T08:15:40;25.00;60.50
68217;DHT22;55037;52.354;4.992;2023-07-24T08:18:07;24.80;59.50
68217;DHT22;55037;52.354;4.992;2023-07-24T08:20:36;24.50;59.80
68217;DHT22;55037;52.354;4.992;2023-07-24T08:23:04;24.10;60.70
68217;DHT22;55037;52.354;4.992;2023-07-24T08:25:31;23.90;61.20
68217;DHT22;55037;52.354;4.992;2023-07-24T08:27:59;23.80;61.90
68217;DHT22;55037;52.354;4.992;2023-07-24T08:30:34;23.70;61.80
68217;DHT22;55037;52.354;4.992;2023-07-24T08:33:01;23.50;62.30
68217;DHT22;55037;52.354;4.992;2023-07-24T08:35:29;23.60;62.80
68217;DHT22;55037;52.354;4.992;2023-07-24T08:37:58;23.60;62.30
68217;DHT22;55037;52.354;4.992;2023-07-24T08:40:26;23.80;62.20
68217;DHT22;55037;52.354;4.992;2023-07-24T08:42:54;24.10;62.50
68217;DHT22;55037;52.354;4.992;2023-07-24T08:45:23;24.60;60.80
68217;DHT22;55037;52.354;4.992;2023-07-24T08:47:51;24.80;59.00
68217;DHT22;55037;52.354;4.992;2023-07-24T08:50:18;24.80;57.70
68217;DHT22;55037;52.354;4.992;2023-07-24T08:52:46;24.60;58.40
68217;DHT22;55037;52.354;4.992;2023-07-24T08:55:14;24.30;58.80
68217;DHT22;55037;52.354;4.992;2023-07-24T08:57:42;24.00;59.50
68217;DHT22;55037;52.354;4.992;2023-07-24T09:00:09;23.90;60.30
68217;DHT22;55037;52.354;4.992;2023-07-24T09:02:37;24.00;60.60
68217;DHT22;55037;52.354;4.992;2023-07-24T09:05:05;24.30;60.40
68217;DHT22;55037;52.354;4.992;2023-07-24T09:07:32;24.60;59.70
68217;DHT22;55037;52.354;4.992;2023-07-24T09:09:59;24.90;58.90
68217;DHT22;55037;52.354;4.992;2023-07-24T09:12:27;25.20;58.10
68217;DHT22;55037;52.354;4.992;2023-07-24T09:15:04;25.70;56.80
68217;DHT22;55037;52.354;4.992;2023-07-24T09:17:34;25.90;55.70
68217;DHT22;55037;52.354;4.992;2023-07-24T09:20:02;26.60;53.90
68217;DHT22;55037;52.354;4.992;2023-07-24T09:22:30;28.00;50.00
68217;DHT22;55037;52.354;4.992;2023-07-24T09:25:00;29.10;47.50
68217;DHT22;55037;52.354;4.992;2023-07-24T09:27:30;30.70;43.70
68217;DHT22;55037;52.354;4.992;2023-07-24T09:30:00;31.90;39.30
68217;DHT22;55037;52.354;4.992;2023-07-24T09:32:28;32.90;37.90
68217;DHT22;55037;52.354;4.992;2023-07-24T09:34:56;33.50;33.90
68217;DHT22;55037;52.354;4.992;2023-07-24T09:37:25;34.00;33.00
68217;DHT22;55037;52.354;4.992;2023-07-24T09:39:53;33.70;32.00
68217;DHT22;55037;52.354;4.992;2023-07-24T09:42:30;33.00;33.00
68217;DHT22;55037;52.354;4.992;2023-07-24T09:44:57;32.00;33.70
68217;DHT22;55037;52.354;4.992;2023-07-24T09:47:25;31.20;35.40
68217;DHT22;55037;52.354;4.992;2023-07-24T09:50:13;30.60;35.60
68217;DHT22;55037;52.354;4.992;2023-07-24T09:52:41;29.10;38.20
68217;DHT22;55037;52.354;4.992;2023-07-24T09:55:25;27.90;41.10
68217;DHT22;55037;52.354;4.992;2023-07-24T09:57:58;27.20;43.80
68217;DHT22;55037;52.354;4.992;2023-07-24T10:00:26;27.00;44.20
68217;DHT22;55037;52.354;4.992;2023-07-24T10:02:54;27.00;44.40
68217;DHT22;55037;52.354;4.992;2023-07-24T10:05:21;27.10;44.60
68217;DHT22;55037;52.354;4.992;2023-07-24T10:07:50;27.20;44.20
68217;DHT22;55037;52.354;4.992;2023-07-24T10:10:18;27.00;45.00
68217;DHT22;55037;52.354;4.992;2023-07-24T10:12:46;27.00;45.40
68217;DHT22;55037;52.354;4.992;2023-07-24T10:15:14;27.00;45.20
68217;DHT22;55037;52.354;4.992;2023-07-24T10:17:41;27.40;44.70
68217;DHT22;55037;52.354;4.992;2023-07-24T10:20:11;27.30;43.00
68217;DHT22;55037;52.354;4.992;2023-07-24T10:22:42;26.90;43.90
68217;DHT22;55037;52.354;4.992;2023-07-24T10:25:10;26.80;45.00
68217;DHT22;55037;52.354;4.992;2023-07-24T10:27:45;27.30;44.90
68217;DHT22;55037;52.354;4.992;2023-07-24T10:30:13;28.00;43.80
68217;DHT22;55037;52.354;4.992;2023-07-24T10:33:12;29.10;42.10
68217;DHT22;55037;52.354;4.992;2023-07-24T10:35:45;29.50;39.60
68217;DHT22;55037;52.354;4.992;2023-07-24T10:38:15;29.50;39.50
68217;DHT22;55037;52.354;4.992;2023-07-24T10:40:46;30.00;39.30
68217;DHT22;55037;52.354;4.992;2023-07-24T10:43:19;30.00;36.70
68217;DHT22;55037;52.354;4.992;2023-07-24T10:45:51;29.20;37.80
68217;DHT22;55037;52.354;4.992;2023-07-24T10:48:20;28.50;39.00
68217;DHT22;55037;52.354;4.992;2023-07-24T10:50:49;28.80;39.10
68217;DHT22;55037;52.354;4.992;2023-07-24T10:53:22;29.20;39.10
68217;DHT22;55037;52.354;4.992;2023-07-24T10:55:51;29.90;38.00
68217;DHT22;55037;52.354;4.992;2023-07-24T10:58:19;30.90;37.00
68217;DHT22;55037;52.354;4.992;2023-07-24T11:00:46;32.70;33.80
68217;DHT22;55037;52.354;4.992;2023-07-24T11:03:15;34.10;30.40
68217;DHT22;55037;52.354;4.992;2023-07-24T11:05:46;34.20;29.20
68217;DHT22;55037;52.354;4.992;2023-07-24T11:08:18;34.00;30.10
68217;DHT22;55037;52.354;4.992;2023-07-24T11:13:21;36.10;28.00
68217;DHT22;55037;52.354;4.992;2023-07-24T11:15:49;36.70;27.00
68217;DHT22;55037;52.354;4.992;2023-07-24T11:18:17;36.30;26.40
68217;DHT22;55037;52.354;4.992;2023-07-24T11:20:47;33.80;28.40
68217;DHT22;55037;52.354;4.992;2023-07-24T11:23:14;31.40;31.90
68217;DHT22;55037;52.354;4.992;2023-07-24T11:25:42;29.50;35.50
68217;DHT22;55037;52.354;4.992;2023-07-24T11:28:12;29.10;38.80
68217;DHT22;55037;52.354;4.992;2023-07-24T11:30:40;30.80;35.90
68217;DHT22;55037;52.354;4.992;2023-07-24T11:33:09;31.20;33.40
68217;DHT22;55037;52.354;4.992;2023-07-24T11:35:38;30.30;34.90
68217;DHT22;55037;52.354;4.992;2023-07-24T11:38:08;29.00;38.20
68217;DHT22;55037;52.354;4.992;2023-07-24T11:40:43;28.70;40.10
68217;DHT22;55037;52.354;4.992;2023-07-24T11:43:16;29.40;40.30
68217;DHT22;55037;52.354;4.992;2023-07-24T11:45:45;29.60;37.50
68217;DHT22;55037;52.354;4.992;2023-07-24T11:48:13;28.80;39.70
68217;DHT22;55037;52.354;4.992;2023-07-24T11:50:45;29.40;39.30
68217;DHT22;55037;52.354;4.992;2023-07-24T11:53:28;29.10;39.00
68217;DHT22;55037;52.354;4.992;2023-07-24T11:55:58;28.10;40.20
68217;DHT22;55037;52.354;4.992;2023-07-24T11:58:28;27.30;42.60
68217;DHT22;55037;52.354;4.992;2023-07-24T12:00:56;26.60;44.20
68217;DHT22;55037;52.354;4.992;2023-07-24T12:03:26;26.50;45.80
68217;DHT22;55037;52.354;4.992;2023-07-24T12:05:54;26.50;46.30
68217;DHT22;55037;52.354;4.992;2023-07-24T12:08:33;26.80;47.20
68217;DHT22;55037;52.354;4.992;2023-07-24T12:11:01;28.10;47.20
68217;DHT22;55037;52.354;4.992;2023-07-24T12:13:29;30.30;42.70
68217;DHT22;55037;52.354;4.992;2023-07-24T12:15:58;32.00;38.50
68217;DHT22;55037;52.354;4.992;2023-07-24T12:18:26;31.50;36.30
68217;DHT22;55037;52.354;4.992;2023-07-24T12:20:53;30.40;37.50
68217;DHT22;55037;52.354;4.992;2023-07-24T12:23:20;29.40;38.00
68217;DHT22;55037;52.354;4.992;2023-07-24T12:25:48;28.40;39.30
68217;DHT22;55037;52.354;4.992;2023-07-24T12:28:15;28.00;40.50
68217;DHT22;55037;52.354;4.992;2023-07-24T12:30:42;27.70;40.90
68217;DHT22;55037;52.354;4.992;2023-07-24T12:33:10;28.40;43.10
68217;DHT22;55037;52.354;4.992;2023-07-24T12:35:37;29.90;39.00
68217;DHT22;55037;52.354;4.992;2023-07-24T12:38:04;31.00;37.40
68217;DHT22;55037;52.354;4.992;2023-07-24T12:40:32;30.90;36.40
68217;DHT22;55037;52.354;4.992;2023-07-24T12:42:59;30.10;36.80
68217;DHT22;55037;52.354;4.992;2023-07-24T12:45:26;29.30;38.40
68217;DHT22;55037;52.354;4.992;2023-07-24T12:47:54;28.70;39.10
68217;DHT22;55037;52.354;4.992;2023-07-24T12:50:22;28.30;40.50
68217;DHT22;55037;52.354;4.992;2023-07-24T12:52:50;28.70;39.80
68217;DHT22;55037;52.354;4.992;2023-07-24T12:55:18;28.80;40.00
68217;DHT22;55037;52.354;4.992;2023-07-24T12:57:45;29.70;38.60
68217;DHT22;55037;52.354;4.992;2023-07-24T13:00:12;29.50;38.60
68217;DHT22;55037;52.354;4.992;2023-07-24T13:02:40;29.60;36.50
68217;DHT22;55037;52.354;4.992;2023-07-24T13:05:07;29.00;37.70
68217;DHT22;55037;52.354;4.992;2023-07-24T13:07:35;30.20;39.40
68217;DHT22;55037;52.354;4.992;2023-07-24T13:10:03;30.90;35.90
68217;DHT22;55037;52.354;4.992;2023-07-24T13:12:31;30.90;36.50
68217;DHT22;55037;52.354;4.992;2023-07-24T13:14:58;30.20;35.90
68217;DHT22;55037;52.354;4.992;2023-07-24T13:17:25;29.40;37.20
68217;DHT22;55037;52.354;4.992;2023-07-24T13:19:53;29.00;38.30
68217;DHT22;55037;52.354;4.992;2023-07-24T13:22:20;28.90;38.10
68217;DHT22;55037;52.354;4.992;2023-07-24T13:24:48;29.10;37.70
68217;DHT22;55037;52.354;4.992;2023-07-24T13:27:15;29.10;37.20
68217;DHT22;55037;52.354;4.992;2023-07-24T13:29:42;28.50;37.50
68217;DHT22;55037;52.354;4.992;2023-07-24T13:32:10;28.40;38.40
68217;DHT22;55037;52.354;4.992;2023-07-24T13:34:37;28.00;38.30
68217;DHT22;55037;52.354;4.992;2023-07-24T13:37:05;27.30;40.10
68217;DHT22;55037;52.354;4.992;2023-07-24T13:39:32;27.00;41.90
68217;DHT22;55037;52.354;4.992;2023-07-24T13:42:01;27.00;41.60
68217;DHT22;55037;52.354;4.992;2023-07-24T13:44:28;26.80;41.60
68217;DHT22;55037;52.354;4.992;2023-07-24T13:46:56;27.00;42.20
68217;DHT22;55037;52.354;4.992;2023-07-24T13:49:23;27.40;41.60
68217;DHT22;55037;52.354;4.992;2023-07-24T13:51:50;27.90;40.20
68217;DHT22;55037;52.354;4.992;2023-07-24T13:54:18;28.80;38.90
68217;DHT22;55037;52.354;4.992;2023-07-24T13:56:45;28.70;38.90
68217;DHT22;55037;52.354;4.992;2023-07-24T13:59:12;29.70;39.10
68217;DHT22;55037;52.354;4.992;2023-07-24T14:01:40;30.70;36.80
68217;DHT22;55037;52.354;4.992;2023-07-24T14:04:09;30.20;35.60
68217;DHT22;55037;52.354;4.992;2023-07-24T14:06:38;29.20;36.90
68217;DHT22;55037;52.354;4.992;2023-07-24T14:09:06;28.20;38.80
68217;DHT22;55037;52.354;4.992;2023-07-24T14:11:34;27.60;39.80
68217;DHT22;55037;52.354;4.992;2023-07-24T14:14:01;27.40;40.90
68217;DHT22;55037;52.354;4.992;2023-07-24T14:16:28;27.60;41.00
68217;DHT22;55037;52.354;4.992;2023-07-24T14:18:55;27.90;40.60
68217;DHT22;55037;52.354;4.992;2023-07-24T14:21:23;28.20;40.30
68217;DHT22;55037;52.354;4.992;2023-07-24T14:23:50;28.60;39.30
68217;DHT22;55037;52.354;4.992;2023-07-24T14:26:17;28.30;38.70
68217;DHT22;55037;52.354;4.992;2023-07-24T14:28:45;27.70;39.40
68217;DHT22;55037;52.354;4.992;2023-07-24T14:31:12;27.10;40.20
68217;DHT22;55037;52.354;4.992;2023-07-24T14:33:39;26.50;41.40
68217;DHT22;55037;52.354;4.992;2023-07-24T14:36:07;25.70;42.20
68217;DHT22;55037;52.354;4.992;2023-07-24T14:38:34;25.00;44.40
68217;DHT22;55037;52.354;4.992;2023-07-24T14:41:01;24.60;45.30
68217;DHT22;55037;52.354;4.992;2023-07-24T14:43:29;24.30;46.00
68217;DHT22;55037;52.354;4.992;2023-07-24T14:45:56;24.00;47.60
68217;DHT22;55037;52.354;4.992;2023-07-24T14:48:23;23.90;48.10
68217;DHT22;55037;52.354;4.992;2023-07-24T14:50:51;23.90;48.50
68217;DHT22;55037;52.354;4.992;2023-07-24T14:53:18;23.70;48.80
68217;DHT22;55037;52.354;4.992;2023-07-24T14:55:45;23.60;49.00
68217;DHT22;55037;52.354;4.992;2023-07-24T14:58:12;23.40;49.60
68217;DHT22;55037;52.354;4.992;2023-07-24T15:00:40;23.30;50.40
68217;DHT22;55037;52.354;4.992;2023-07-24T15:03:07;23.10;50.40
68217;DHT22;55037;52.354;4.992;2023-07-24T15:05:35;22.80;50.80
68217;DHT22;55037;52.354;4.992;2023-07-24T15:08:02;22.60;51.60
68217;DHT22;55037;52.354;4.992;2023-07-24T15:10:29;22.50;52.30
68217;DHT22;55037;52.354;4.992;2023-07-24T15:12:57;22.40;52.90
68217;DHT22;55037;52.354;4.992;2023-07-24T15:15:24;22.40;53.10
68217;DHT22;55037;52.354;4.992;2023-07-24T15:17:51;22.30;52.90
68217;DHT22;55037;52.354;4.992;2023-07-24T15:20:19;22.30;53.10
68217;DHT22;55037;52.354;4.992;2023-07-24T15:22:46;22.20;53.60
68217;DHT22;55037;52.354;4.992;2023-07-24T15:25:13;22.20;55.10
68217;DHT22;55037;52.354;4.992;2023-07-24T15:27:41;22.10;54.40
68217;DHT22;55037;52.354;4.992;2023-07-24T15:30:08;22.00;55.20
68217;DHT22;55037;52.354;4.992;2023-07-24T15:32:35;21.80;55.40
68217;DHT22;55037;52.354;4.992;2023-07-24T15:35:03;21.60;55.80
68217;DHT22;55037;52.354;4.992;2023-07-24T15:37:31;21.40;57.10
68217;DHT22;55037;52.354;4.992;2023-07-24T15:39:58;21.30;57.50